Time;durP1;ratioP1;P1;durP2;ratioP2;P2;SDS_P1;SDS_P2;PMS_P1;PMS_P2;Temp;Humidity;BMP_temperature;BMP_pressure;BME280_temperature;BME280_humidity;BME280_pressure;Samples;Min_cycle;Max_cycle;Signal;HPM_P1;HPM_P2
2022/06/19 00:00:49;;;;;;;15.57;4.43;;;;;;;24.61;100.00;98391.41;5047451;28;20197;-80
2022/06/19 00:03:24;;;;;;;14.75;4.25;;;;;;;24.71;100.00;98399.13;5045833;28;20197;-80
2022/06/19 00:05:53;;;;;;;15.07;4.10;;;;;;;24.44;100.00;98395.53;5077579;28;20203;-80
2022/06/19 00:08:23;;;;;;;20.92;4.55;;;;;;;24.36;100.00;98388.44;5088896;28;20297;-80
2022/06/19 00:10:54;;;;;;;13.38;3.85;;;;;;;24.44;100.00;98390.13;5091216;28;20203;-80
2022/06/19 00:13:23;;;;;;;14.68;4.13;;;;;;;24.09;100.00;98386.69;5085180;28;20222;-80
2022/06/19 00:15:53;;;;;;;16.50;4.28;;;;;;;24.13;100.00;98372.53;5051923;28;20655;-80
2022/06/19 00:18:23;;;;;;;14.80;4.00;;;;;;;24.16;100.00;98377.53;5045836;28;20193;-79
2022/06/19 00:20:52;;;;;;;16.58;3.78;;;;;;;24.29;100.00;98368.59;5051093;28;20189;-81
2022/06/19 00:23:24;;;;;;;15.88;4.35;;;;;;;24.30;100.00;98359.44;5047069;28;20292;-80
2022/06/19 00:25:54;;;;;;;21.88;4.32;;;;;;;24.45;100.00;98349.31;5049832;28;20201;-80
2022/06/19 00:28:23;;;;;;;14.32;4.30;;;;;;;24.38;100.00;98345.75;5045493;28;20189;-80
2022/06/19 00:30:52;;;;;;;15.23;4.40;;;;;;;24.37;100.00;98335.97;5049064;28;20203;-80
2022/06/19 00:33:20;;;;;;;15.93;4.85;;;;;;;24.29;100.00;98336.13;5046594;28;20229;-79
2022/06/19 00:35:50;;;;;;;14.65;3.88;;;;;;;24.34;100.00;98325.56;5048692;28;20201;-80
2022/06/19 00:38:20;;;;;;;13.45;4.10;;;;;;;24.44;100.00;98325.16;5050027;28;20220;-81
2022/06/19 00:40:49;;;;;;;13.40;4.32;;;;;;;23.75;100.00;98334.34;5070196;28;20198;-81
2022/06/19 00:43:20;;;;;;;11.10;4.28;;;;;;;23.87;100.00;98332.72;5084161;28;20210;-80
2022/06/19 00:45:50;;;;;;;13.27;4.20;;;;;;;23.83;100.00;98325.19;5086882;28;20348;-80
2022/06/19 00:48:22;;;;;;;18.73;4.35;;;;;;;23.81;100.00;98330.81;5086296;28;20226;-80
2022/06/19 00:50:54;;;;;;;14.88;4.07;;;;;;;23.45;100.00;98328.38;5045371;28;20256;-81
2022/06/19 00:53:28;;;;;;;17.92;4.10;;;;;;;23.35;100.00;98333.28;5045191;28;20220;-81
2022/06/19 00:55:58;;;;;;;13.27;3.75;;;;;;;23.39;100.00;98343.50;5048687;28;20189;-80
2022/06/19 00:58:33;;;;;;;8.63;3.58;;;;;;;23.45;100.00;98336.47;5056833;28;20206;-80
2022/06/19 01:01:06;;;;;;;17.52;4.40;;;;;;;23.46;100.00;98331.91;5071381;28;20183;-81
2022/06/19 01:03:41;;;;;;;16.60;4.35;;;;;;;23.43;100.00;98331.25;5066777;28;20196;-80
2022/06/19 01:06:10;;;;;;;14.32;3.95;;;;;;;23.31;100.00;98327.44;5062040;28;20203;-80
2022/06/19 01:08:38;;;;;;;18.08;4.10;;;;;;;23.21;100.00;98326.97;5067785;28;20679;-80
2022/06/19 01:11:07;;;;;;;15.10;4.15;;;;;;;23.21;100.00;98323.44;5071438;28;20207;-80
2022/06/19 01:13:38;;;;;;;18.10;4.00;;;;;;;23.29;100.00;98328.69;5067799;28;20705;-81
2022/06/19 01:16:08;;;;;;;16.23;4.13;;;;;;;23.45;100.00;98316.69;5064708;28;20203;-80
2022/06/19 01:18:39;;;;;;;17.17;5.13;;;;;;;23.87;100.00;98310.25;5063047;28;20291;-80
2022/06/19 01:21:15;;;;;;;19.33;4.60;;;;;;;24.10;100.00;98305.28;5068248;28;20713;-80
2022/06/19 01:23:53;;;;;;;17.55;6.22;;;;;;;24.17;100.00;98298.03;5066627;28;20196;-80
2022/06/19 01:26:25;;;;;;;15.32;4.85;;;;;;;24.25;100.00;98305.94;5067330;28;20199;-80
2022/06/19 01:28:56;;;;;;;15.02;4.43;;;;;;;24.40;100.00;98303.06;5083059;28;20192;-80
2022/06/19 01:31:28;;;;;;;20.42;4.82;;;;;;;24.46;100.00;98307.66;5093384;28;20192;-80
2022/06/19 01:34:01;;;;;;;16.38;4.80;;;;;;;24.48;100.00;98289.31;5089572;28;20280;-81
2022/06/19 01:36:31;;;;;;;20.63;5.18;;;;;;;24.47;100.00;98289.53;5093294;28;20192;-81
2022/06/19 01:39:02;;;;;;;19.67;5.38;;;;;;;24.55;100.00;98289.31;5093675;28;20655;-80
2022/06/19 01:41:34;;;;;;;16.10;5.13;;;;;;;24.16;100.00;98280.13;5091020;28;20195;-80
2022/06/19 01:44:03;;;;;;;18.27;4.30;;;;;;;23.92;100.00;98272.56;5095710;28;20206;-81
2022/06/19 01:46:31;;;;;;;13.90;4.35;;;;;;;23.94;100.00;98257.00;5093387;28;20226;-80
2022/06/19 01:49:00;;;;;;;17.42;5.07;;;;;;;24.12;100.00;98259.06;5087646;28;20643;-80
2022/06/19 01:51:28;;;;;;;15.45;4.45;;;;;;;24.17;100.00;98260.13;5091350;28;20208;-80
2022/06/19 01:54:00;;;;;;;16.42;4.75;;;;;;;24.26;100.00;98250.78;5092949;28;20223;-80
2022/06/19 01:56:32;;;;;;;16.50;4.45;;;;;;;24.24;100.00;98243.91;5097510;28;20215;-80
2022/06/19 01:59:05;;;;;;;21.63;4.78;;;;;;;24.25;100.00;98253.69;5091873;28;20194;-81
2022/06/19 02:01:37;;;;;;;16.63;4.70;;;;;;;24.23;100.00;98253.91;5099454;27;20196;-81
2022/06/19 02:04:08;;;;;;;18.65;4.20;;;;;;;24.17;100.00;98237.66;5095721;28;20187;-81
2022/06/19 02:06:41;;;;;;;18.90;4.30;;;;;;;24.14;100.00;98244.31;5092223;28;20233;-80
2022/06/19 02:09:11;;;;;;;17.40;4.90;;;;;;;24.10;100.00;98234.94;5088087;28;20219;-80
2022/06/19 02:11:41;;;;;;;15.13;3.90;;;;;;;24.08;100.00;98236.19;5092504;28;20274;-81
2022/06/19 02:14:13;;;;;;;17.90;4.60;;;;;;;23.91;100.00;98227.63;5089694;28;20219;-80
2022/06/19 02:16:43;;;;;;;15.75;4.47;;;;;;;23.90;100.00;98221.38;5086505;28;20200;-80
2022/06/19 02:19:12;;;;;;;14.05;4.50;;;;;;;23.80;100.00;98217.44;5088032;28;20272;-80
2022/06/19 02:21:43;;;;;;;19.77;4.70;;;;;;;23.74;100.00;98221.81;5092604;28;20215;-80
2022/06/19 02:24:15;;;;;;;13.32;4.68;;;;;;;23.73;100.00;98217.41;5095518;28;20200;-80
2022/06/19 02:26:47;;;;;;;13.32;3.90;;;;;;;23.60;100.00;98212.81;5093518;28;20222;-80
2022/06/19 02:29:18;;;;;;;21.40;4.60;;;;;;;23.71;100.00;98219.50;5096267;28;20191;-80
2022/06/19 02:31:48;;;;;;;13.93;4.30;;;;;;;23.77;100.00;98215.97;5096538;28;20195;-80
2022/06/19 02:34:22;;;;;;;23.15;4.47;;;;;;;23.70;100.00;98218.66;5093540;28;20226;-79
2022/06/19 02:36:55;;;;;;;13.00;4.43;;;;;;;23.81;100.00;98208.28;5094299;28;20200;-81
2022/06/19 02:39:34;;;;;;;14.05;4.45;;;;;;;23.85;100.00;98212.25;5096994;28;20199;-81
2022/06/19 02:42:17;;;;;;;16.65;4.93;;;;;;;23.83;100.00;98204.31;5096430;28;20196;-81
2022/06/19 02:44:46;;;;;;;18.83;4.80;;;;;;;23.88;100.00;98190.19;5094282;28;20206;-80
2022/06/19 02:47:14;;;;;;;18.55;4.15;;;;;;;23.88;100.00;98185.59;5095230;28;20275;-80
2022/06/19 02:49:44;;;;;;;22.80;4.15;;;;;;;23.95;100.00;98188.31;5093144;28;20188;-81
2022/06/19 02:52:13;;;;;;;15.25;3.72;;;;;;;23.90;100.00;98188.94;5093170;28;20184;-81
2022/06/19 02:54:41;;;;;;;18.05;3.85;;;;;;;23.90;100.00;98188.09;5093613;28;20224;-81
2022/06/19 02:57:13;;;;;;;17.48;4.55;;;;;;;23.85;100.00;98183.31;5061722;28;20192;-80
2022/06/19 02:59:43;;;;;;;19.00;4.30;;;;;;;23.83;100.00;98182.66;5096199;28;20234;-80
2022/06/19 03:02:13;;;;;;;15.57;4.35;;;;;;;23.85;100.00;98194.16;5097831;28;20266;-81
2022/06/19 03:04:43;;;;;;;14.18;4.38;;;;;;;23.78;100.00;98189.75;5095098;28;20217;-80
2022/06/19 03:07:12;;;;;;;14.93;4.30;;;;;;;23.78;100.00;98187.06;5091823;28;20203;-80
2022/06/19 03:09:40;;;;;;;17.85;3.90;;;;;;;23.69;100.00;98191.81;5093966;28;20275;-80
2022/06/19 03:12:12;;;;;;;11.07;3.75;;;;;;;23.66;100.00;98194.94;5098375;27;20200;-80
2022/06/19 03:14:44;;;;;;;17.20;4.10;;;;;;;23.62;100.00;98199.09;5096056;28;20239;-80
2022/06/19 03:17:15;;;;;;;18.20;4.03;;;;;;;23.62;100.00;98181.00;5097611;27;20211;-81
2022/06/19 03:19:44;;;;;;;13.77;4.20;;;;;;;23.67;100.00;98178.50;5094596;28;20219;-80
2022/06/19 03:22:13;;;;;;;12.10;3.65;;;;;;;23.62;100.00;98183.69;5091765;28;20195;-80
2022/06/19 03:24:42;;;;;;;18.00;4.22;;;;;;;23.65;100.00;98177.91;5093377;28;20192;-80
2022/06/19 03:27:13;;;;;;;16.70;3.97;;;;;;;23.77;100.00;98177.28;5095703;28;20199;-80
2022/06/19 03:29:42;;;;;;;16.65;3.95;;;;;;;23.82;100.00;98167.50;5089846;28;20309;-80
2022/06/19 03:32:12;;;;;;;15.95;3.70;;;;;;;23.85;100.00;98168.97;5097797;27;20204;-79
2022/06/19 03:34:42;;;;;;;16.13;3.65;;;;;;;23.82;100.00;98169.38;5093990;28;20229;-81
2022/06/19 03:37:11;;;;;;;19.92;4.25;;;;;;;23.87;100.00;98162.31;5095752;28;20219;-80
2022/06/19 03:39:40;;;;;;;13.60;3.88;;;;;;;23.87;100.00;98154.19;5034821;28;20201;-80
2022/06/19 03:42:08;;;;;;;13.57;3.67;;;;;;;23.89;100.00;98152.09;5014162;28;20288;-81
2022/06/19 03:44:38;;;;;;;12.70;3.92;;;;;;;23.86;100.00;98143.59;5031529;28;20221;-80
2022/06/19 03:47:07;;;;;;;12.95;3.80;;;;;;;23.85;100.00;98144.63;5033456;28;20204;-81
2022/06/19 03:49:36;;;;;;;14.10;3.95;;;;;;;23.78;100.00;98141.06;5033273;28;20209;-81
2022/06/19 03:52:05;;;;;;;13.30;4.03;;;;;;;23.69;100.00;98145.84;5030476;28;20664;-80
2022/06/19 03:54:34;;;;;;;16.48;3.70;;;;;;;23.69;100.00;98156.66;5029918;28;20297;-80
2022/06/19 03:57:02;;;;;;;17.65;3.55;;;;;;;23.66;100.00;98160.63;5038538;28;20214;-80
2022/06/19 03:59:31;;;;;;;15.13;4.13;;;;;;;23.72;100.00;98163.53;5091457;28;20192;-80
2022/06/19 04:02:02;;;;;;;15.55;4.20;;;;;;;23.81;100.00;98148.78;5091869;28;20266;-80
2022/06/19 04:04:30;;;;;;;20.98;3.92;;;;;;;23.75;100.00;98149.63;5087352;28;20225;-80
2022/06/19 04:06:58;;;;;;;15.27;3.78;;;;;;;23.72;100.00;98144.59;5091910;28;20274;-80
2022/06/19 04:09:28;;;;;;;13.13;3.97;;;;;;;23.69;100.00;98159.38;5090281;28;20196;-79
2022/06/19 04:11:57;;;;;;;12.48;3.85;;;;;;;23.55;100.00;98169.31;5092206;28;20199;-80
2022/06/19 04:14:25;;;;;;;11.48;3.65;;;;;;;23.56;100.00;98176.38;5093810;28;20282;-80
2022/06/19 04:16:54;;;;;;;11.88;4.20;;;;;;;23.37;100.00;98188.00;5089360;28;20670;-80
2022/06/19 04:19:26;;;;;;;13.50;3.88;;;;;;;23.19;100.00;98204.75;5095511;27;20188;-80
2022/06/19 04:21:56;;;;;;;15.10;4.25;;;;;;;22.79;100.00;98192.91;5090412;28;20278;-80
2022/06/19 04:24:25;;;;;;;16.88;3.70;;;;;;;23.04;100.00;98185.16;5090713;28;20283;-80
2022/06/19 04:26:53;;;;;;;19.40;4.25;;;;;;;23.23;100.00;98183.56;5087590;28;20198;-80
2022/06/19 04:29:21;;;;;;;11.50;3.80;;;;;;;23.27;100.00;98184.84;5093699;28;20282;-80
2022/06/19 04:31:50;;;;;;;16.95;4.30;;;;;;;23.23;100.00;98181.69;5093989;28;20199;-80
2022/06/19 04:34:18;;;;;;;17.75;4.10;;;;;;;23.24;100.00;98177.13;5093094;28;20251;-80
2022/06/19 04:36:48;;;;;;;14.25;4.20;;;;;;;23.14;100.00;98174.81;5092339;28;20215;-80
2022/06/19 04:39:20;;;;;;;16.48;4.03;;;;;;;23.04;100.00;98182.44;5094206;28;20218;-81
2022/06/19 04:41:49;;;;;;;19.58;4.38;;;;;;;23.21;100.00;98177.53;5094081;28;20248;-80
2022/06/19 04:44:19;;;;;;;15.18;4.10;;;;;;;23.06;100.00;98177.69;5092705;28;20230;-80
2022/06/19 04:46:47;;;;;;;16.25;4.38;;;;;;;23.21;100.00;98181.06;5092117;28;20199;-80
2022/06/19 04:49:17;;;;;;;16.60;3.80;;;;;;;23.26;100.00;98175.91;5093404;28;20214;-80
2022/06/19 04:51:45;;;;;;;14.52;3.85;;;;;;;23.25;100.00;98176.09;5093763;28;20198;-80
2022/06/19 04:54:15;;;;;;;15.13;4.10;;;;;;;23.43;100.00;98171.75;5096620;27;20259;-81
2022/06/19 04:56:46;;;;;;;18.50;4.07;;;;;;;23.66;100.00;98176.03;5091264;28;20222;-80
2022/06/19 04:59:15;;;;;;;11.68;3.80;;;;;;;23.74;100.00;98178.53;5057065;28;20206;-80
2022/06/19 05:01:44;;;;;;;17.10;4.20;;;;;;;23.72;100.00;98177.88;5093016;28;20226;-80
2022/06/19 05:04:14;;;;;;;14.95;3.75;;;;;;;23.92;100.00;98176.03;5052082;28;20268;-80
2022/06/19 05:06:42;;;;;;;15.13;4.13;;;;;;;24.05;100.00;98164.41;5051549;28;20208;-80
2022/06/19 05:09:10;;;;;;;16.50;3.65;;;;;;;24.14;100.00;98173.13;5048163;28;20204;-83
2022/06/19 05:11:40;;;;;;;15.75;3.58;;;;;;;24.15;100.00;98169.38;5050207;28;20189;-80
2022/06/19 05:14:10;;;;;;;19.80;4.10;;;;;;;24.22;100.00;98164.78;5053339;28;20196;-81
2022/06/19 05:16:39;;;;;;;14.43;4.20;;;;;;;24.33;100.00;98166.06;5051623;28;20220;-81
2022/06/19 05:19:07;;;;;;;15.10;3.83;;;;;;;24.37;100.00;98157.31;5051580;28;20224;-80
2022/06/19 05:21:36;;;;;;;17.63;3.83;;;;;;;24.31;100.00;98141.91;5056915;28;20192;-80
2022/06/19 05:24:04;;;;;;;15.55;3.90;;;;;;;24.27;100.00;98144.16;5092884;28;20234;-80
2022/06/19 05:26:34;;;;;;;16.70;3.67;;;;;;;24.39;100.00;98146.25;5093217;28;20195;-80
2022/06/19 05:29:05;;;;;;;13.98;3.75;;;;;;;24.37;100.00;98145.66;5094380;28;20187;-81
2022/06/19 05:31:34;;;;;;;14.40;3.95;;;;;;;24.44;100.00;98151.88;5093555;28;20329;-79
2022/06/19 05:34:03;;;;;;;14.45;4.03;;;;;;;24.59;100.00;98155.16;5096762;28;20241;-80
2022/06/19 05:36:39;;;;;;;11.45;3.67;;;;;;;24.72;100.00;98149.72;5097423;28;20215;-81
2022/06/19 05:39:09;;;;;;;15.32;3.70;;;;;;;24.73;100.00;98147.84;5095208;28;20198;-81
2022/06/19 05:41:39;;;;;;;13.48;3.75;;;;;;;24.72;100.00;98165.16;5099611;27;20218;-80
2022/06/19 05:44:11;;;;;;;15.98;3.95;;;;;;;24.77;100.00;98160.75;5100014;28;20195;-80
2022/06/19 05:46:39;;;;;;;14.38;4.15;;;;;;;24.87;100.00;98152.16;5097077;28;20198;-80
2022/06/19 05:49:08;;;;;;;11.45;4.10;;;;;;;24.96;100.00;98158.16;5089701;28;20654;-80
2022/06/19 05:51:38;;;;;;;13.48;3.85;;;;;;;25.00;100.00;98154.00;5093415;28;20198;-80
2022/06/19 05:54:06;;;;;;;14.50;4.38;;;;;;;24.93;100.00;98150.47;5097353;28;20241;-80
2022/06/19 05:56:36;;;;;;;18.88;4.10;;;;;;;24.96;100.00;98155.47;5092335;28;20302;-80
2022/06/19 05:59:04;;;;;;;13.70;3.92;;;;;;;24.97;100.00;98165.25;5097529;28;20191;-80
2022/06/19 06:01:34;;;;;;;13.68;3.78;;;;;;;25.10;100.00;98166.06;5099669;27;20195;-81
2022/06/19 06:04:02;;;;;;;15.38;4.10;;;;;;;25.04;100.00;98152.53;5096075;28;20355;-81
2022/06/19 06:06:32;;;;;;;17.27;4.40;;;;;;;25.14;100.00;98163.75;5098609;28;20199;-81
2022/06/19 06:09:01;;;;;;;16.02;4.28;;;;;;;25.10;100.00;98173.38;5097056;28;20275;-81
2022/06/19 06:11:29;;;;;;;11.88;3.97;;;;;;;25.15;100.00;98157.28;5097601;28;20195;-81
2022/06/19 06:13:58;;;;;;;13.05;3.90;;;;;;;25.16;100.00;98155.41;5094991;28;20203;-80
2022/06/19 06:16:27;;;;;;;13.05;3.90;;;;;;;25.31;100.00;98153.25;5094019;28;20281;-81
2022/06/19 06:18:57;;;;;;;11.13;4.28;;;;;;;25.49;100.00;98145.22;5095743;28;20282;-80
2022/06/19 06:21:28;;;;;;;16.35;4.05;;;;;;;25.64;100.00;98148.44;5096811;28;20191;-81
2022/06/19 06:23:56;;;;;;;18.35;3.90;;;;;;;25.56;100.00;98154.13;5030845;28;20201;-80
2022/06/19 06:26:26;;;;;;;14.13;4.38;;;;;;;25.62;100.00;98155.97;5030703;28;20276;-81
2022/06/19 06:28:56;;;;;;;15.05;4.57;;;;;;;25.63;100.00;98156.78;5032111;28;20190;-80
2022/06/19 06:31:26;;;;;;;13.35;4.00;;;;;;;25.89;100.00;98155.81;5034476;28;20205;-80
2022/06/19 06:33:58;;;;;;;14.15;4.18;;;;;;;25.91;100.00;98135.53;5030136;28;20248;-81
2022/06/19 06:36:27;;;;;;;13.50;4.20;;;;;;;25.95;100.00;98136.75;5031457;28;20217;-81
2022/06/19 06:38:56;;;;;;;17.30;4.43;;;;;;;25.94;100.00;98124.22;5029562;28;20650;-81
2022/06/19 06:41:25;;;;;;;15.98;3.95;;;;;;;26.15;100.00;98133.88;5029674;28;20662;-81
2022/06/19 06:43:54;;;;;;;14.57;3.95;;;;;;;26.28;100.00;98140.22;5029272;28;20205;-81
2022/06/19 06:46:24;;;;;;;11.88;3.75;;;;;;;26.13;100.00;98129.69;5028085;28;20198;-81
2022/06/19 06:48:56;;;;;;;19.67;4.78;;;;;;;26.34;100.00;98133.88;5072478;28;20194;-81
2022/06/19 06:51:28;;;;;;;16.77;4.32;;;;;;;26.41;100.00;98140.94;5096865;28;20195;-81
2022/06/19 06:53:57;;;;;;;16.85;4.45;;;;;;;26.43;100.00;98127.97;5096629;28;20200;-81
2022/06/19 06:56:26;;;;;;;19.70;4.78;;;;;;;26.64;100.00;98118.56;5096311;28;20211;-81
2022/06/19 06:58:54;;;;;;;15.43;4.15;;;;;;;26.63;100.00;98107.91;5095053;28;20200;-81
2022/06/19 07:01:34;;;;;;;16.13;4.55;;;;;;;26.66;100.00;98118.34;5094741;28;20221;-80
2022/06/19 07:04:03;;;;;;;17.20;4.53;;;;;;;26.65;100.00;98132.97;5091658;28;20196;-80
2022/06/19 07:06:34;;;;;;;13.93;4.35;;;;;;;26.89;100.00;98123.06;5094249;28;20202;-81
2022/06/19 07:09:04;;;;;;;14.25;4.72;;;;;;;27.13;100.00;98129.50;5096267;28;20199;-80
2022/06/19 07:11:38;;;;;;;13.98;4.53;;;;;;;27.28;100.00;98122.56;5093565;28;20226;-81
2022/06/19 07:14:07;;;;;;;14.18;4.95;;;;;;;27.29;100.00;98126.09;5096046;28;20639;-80
2022/06/19 07:16:36;;;;;;;16.58;4.57;;;;;;;27.28;100.00;98133.44;5096047;28;20215;-80
2022/06/19 07:19:04;;;;;;;12.98;4.32;;;;;;;27.47;100.00;98136.94;5093942;28;20201;-81
2022/06/19 07:21:35;;;;;;;11.05;4.47;;;;;;;27.59;100.00;98140.50;5086634;28;20199;-81
2022/06/19 07:24:03;;;;;;;16.15;4.55;;;;;;;27.59;100.00;98134.25;5095478;28;20195;-81
2022/06/19 07:26:32;;;;;;;16.48;4.88;;;;;;;27.69;100.00;98137.25;5095023;28;20282;-81
2022/06/19 07:29:01;;;;;;;13.57;4.53;;;;;;;27.82;100.00;98134.34;5089844;28;20199;-80
2022/06/19 07:31:35;;;;;;;12.48;4.85;;;;;;;27.97;100.00;98135.78;5095489;28;20207;-81
2022/06/19 07:34:03;;;;;;;16.83;4.75;;;;;;;28.13;99.79;98124.19;5089133;28;20227;-81
2022/06/19 07:36:32;;;;;;;16.92;4.88;;;;;;;28.35;99.82;98117.09;5094076;28;20227;-81
2022/06/19 07:39:03;;;;;;;15.88;4.93;;;;;;;28.30;100.00;98108.84;5095776;28;20332;-81
2022/06/19 07:41:31;;;;;;;15.85;4.93;;;;;;;28.47;99.00;98117.09;5094927;28;20207;-81
2022/06/19 07:43:59;;;;;;;16.83;4.78;;;;;;;28.54;97.81;98119.69;5095271;28;20196;-81
2022/06/19 07:46:28;;;;;;;11.32;4.63;;;;;;;28.69;97.16;98125.47;5094710;28;20214;-81
2022/06/19 07:51:42;;;;;;;14.35;5.13;;;;;;;28.77;97.46;98123.22;5093706;28;20278;-81
2022/06/19 07:54:14;;;;;;;19.73;5.28;;;;;;;28.91;97.32;98120.25;5092813;28;20203;-81
2022/06/19 07:56:45;;;;;;;16.13;5.10;;;;;;;28.99;96.15;98108.97;5093618;28;20219;-81
2022/06/19 07:59:13;;;;;;;14.65;5.90;;;;;;;28.93;97.64;98121.66;5091489;28;20274;-81
2022/06/19 08:01:42;;;;;;;17.73;5.40;;;;;;;29.06;95.61;98123.28;5096782;27;20191;-82
2022/06/19 08:04:32;;;;;;;14.07;5.32;;;;;;;29.31;94.95;98129.22;5093986;28;20192;-81
2022/06/19 08:07:10;;;;;;;16.90;5.60;;;;;;;29.35;95.77;98130.41;5093776;28;20278;-81
2022/06/19 08:09:41;;;;;;;13.75;5.75;;;;;;;29.44;94.93;98130.00;5090872;28;20199;-82
2022/06/19 08:12:10;;;;;;;17.38;5.75;;;;;;;29.55;95.10;98129.97;5089989;28;20277;-81
2022/06/19 08:14:39;;;;;;;21.15;5.57;;;;;;;29.42;96.25;98122.03;5094838;28;20202;-81
2022/06/19 08:17:07;;;;;;;18.50;5.43;;;;;;;29.64;95.05;98135.88;5096655;28;20220;-81
2022/06/19 08:19:37;;;;;;;13.18;5.78;;;;;;;29.76;92.25;98136.63;5093598;28;20204;-81
2022/06/19 08:22:05;;;;;;;20.75;5.75;;;;;;;29.82;91.27;98129.31;5092715;28;20204;-82
2022/06/19 08:24:33;;;;;;;12.27;5.63;;;;;;;29.83;92.28;98125.53;5012272;28;20209;-81
2022/06/19 08:27:04;;;;;;;16.55;6.00;;;;;;;30.12;89.63;98129.03;5006695;28;20668;-81
2022/06/19 08:29:36;;;;;;;18.30;6.55;;;;;;;30.31;88.89;98135.91;5010735;28;20270;-81
2022/06/19 08:32:05;;;;;;;14.70;5.90;;;;;;;30.35;89.61;98144.41;5010590;28;20212;-81
2022/06/19 08:34:33;;;;;;;15.13;5.60;;;;;;;30.71;85.72;98141.13;5005167;28;20234;-81
2022/06/19 08:37:07;;;;;;;16.77;6.07;;;;;;;30.64;88.13;98140.50;4964042;28;20273;-81
2022/06/19 08:39:38;;;;;;;16.48;6.68;;;;;;;30.77;85.54;98164.72;5010361;28;20197;-81
2022/06/19 08:42:32;;;;;;;13.85;5.65;;;;;;;30.24;85.00;98165.28;5010707;28;20202;-80
2022/06/19 08:45:21;;;;;;;14.13;6.30;;;;;;;30.40;84.98;98180.84;5007189;28;20205;-80
2022/06/19 08:48:26;;;;;;;15.70;5.57;;;;;;;30.43;77.35;98166.69;5010790;28;20259;-81
2022/06/19 08:51:01;;;;;;;13.15;6.10;;;;;;;30.45;77.70;98177.34;5087957;28;20202;-81
2022/06/19 08:53:54;;;;;;;14.15;6.70;;;;;;;30.82;83.25;98191.31;5094020;28;20222;-81
2022/06/19 08:56:31;;;;;;;15.70;6.05;;;;;;;30.85;80.70;98217.34;5096643;28;20202;-81
2022/06/19 08:59:15;;;;;;;11.05;5.85;;;;;;;30.92;78.13;98220.72;5089378;28;20211;-82
2022/06/19 09:01:59;;;;;;;13.63;6.10;;;;;;;30.86;80.13;98225.28;5094013;28;20217;-81
2022/06/19 09:07:47;;;;;;;12.52;6.10;;;;;;;30.15;80.45;98224.16;5067058;28;20207;-81
2022/06/19 09:10:26;;;;;;;15.68;6.40;;;;;;;30.04;79.40;98225.03;5087770;28;20216;-81
2022/06/19 09:13:42;;;;;;;8.80;5.88;;;;;;;30.09;79.97;98215.03;5092782;28;20202;-81
2022/06/19 09:16:22;;;;;;;11.25;5.80;;;;;;;30.26;79.63;98211.47;5093780;28;20651;-81
2022/06/19 09:19:01;;;;;;;13.10;6.07;;;;;;;30.34;81.44;98217.38;5092236;28;20218;-81
2022/06/19 09:21:38;;;;;;;12.30;5.90;;;;;;;30.58;81.09;98219.91;5090182;28;20196;-81
2022/06/19 09:24:21;;;;;;;15.77;6.07;;;;;;;30.51;78.05;98233.78;5093767;28;20247;-80
2022/06/19 09:26:54;;;;;;;14.63;6.47;;;;;;;30.45;80.65;98226.56;5090988;28;20237;-81
2022/06/19 09:29:32;;;;;;;14.88;6.18;;;;;;;30.61;77.65;98233.94;5091024;28;20191;-81
2022/06/19 09:32:09;;;;;;;13.73;6.13;;;;;;;30.70;76.59;98239.84;5095902;28;20199;-81
2022/06/19 09:34:46;;;;;;;14.57;6.63;;;;;;;30.55;76.41;98247.75;5089824;28;20302;-81
2022/06/19 09:37:21;;;;;;;11.02;5.80;;;;;;;30.06;75.36;98242.00;5087254;28;20630;-82
2022/06/19 09:40:03;;;;;;;11.15;6.15;;;;;;;30.19;78.28;98247.16;5093481;28;20199;-81
2022/06/19 09:42:37;;;;;;;10.05;5.43;;;;;;;30.29;80.70;98235.56;5094971;28;20282;-80
2022/06/19 09:45:11;;;;;;;14.40;6.05;;;;;;;30.46;77.80;98233.66;5093494;28;20198;-81
2022/06/19 09:47:48;;;;;;;11.77;5.97;;;;;;;30.41;76.18;98239.91;5092368;28;20627;-81
2022/06/19 09:50:41;;;;;;;12.77;5.93;;;;;;;30.54;78.23;98246.94;5093609;28;20280;-81
2022/06/19 09:53:14;;;;;;;12.45;5.93;;;;;;;30.83;76.02;98239.47;5090808;28;20227;-80
2022/06/19 09:56:01;;;;;;;14.95;6.20;;;;;;;30.93;73.81;98242.34;5093605;28;20278;-81
2022/06/19 09:58:35;;;;;;;15.80;5.93;;;;;;;30.67;73.64;98240.31;5093730;28;20212;-81
2022/06/19 10:01:05;;;;;;;13.00;5.80;;;;;;;30.84;74.91;98232.09;5093235;28;20191;-80
2022/06/19 10:03:40;;;;;;;13.15;6.00;;;;;;;30.89;73.99;98248.59;5092240;28;20235;-81
2022/06/19 10:06:14;;;;;;;13.13;5.88;;;;;;;31.02;73.41;98242.75;5092735;28;20195;-81
2022/06/19 10:08:50;;;;;;;12.25;6.13;;;;;;;31.35;72.89;98228.13;5091365;28;20214;-81
2022/06/19 10:11:24;;;;;;;12.40;6.07;;;;;;;31.43;72.99;98235.06;5089374;28;20201;-81
2022/06/19 10:13:57;;;;;;;13.52;5.50;;;;;;;30.90;71.89;98228.34;5090292;28;20196;-80
2022/06/19 10:16:30;;;;;;;11.40;5.63;;;;;;;31.49;72.78;98234.91;5097335;28;20639;-81
2022/06/19 10:19:13;;;;;;;12.88;6.13;;;;;;;31.43;71.10;98218.66;5095678;28;20215;-81
2022/06/19 10:24:49;;;;;;;16.83;6.22;;;;;;;31.17;70.52;98233.91;5097277;28;20188;-80
2022/06/19 10:27:26;;;;;;;14.85;5.85;;;;;;;31.42;73.16;98239.72;5090101;28;20222;-81
2022/06/19 10:30:03;;;;;;;11.43;6.20;;;;;;;31.57;74.03;98250.03;5096532;28;20202;-81
2022/06/19 10:33:01;;;;;;;14.98;6.30;;;;;;;31.77;74.48;98228.41;5073334;28;20282;-81
2022/06/19 10:35:40;;;;;;;14.40;6.95;;;;;;;31.32;76.93;98245.09;5083546;28;20232;-80
2022/06/19 10:38:24;;;;;;;16.35;5.97;;;;;;;31.59;77.39;98253.34;5096442;28;20306;-81
2022/06/19 10:41:01;;;;;;;14.98;6.53;;;;;;;31.42;77.44;98245.22;5097592;28;20204;-81
2022/06/19 10:43:47;;;;;;;13.88;6.05;;;;;;;31.37;77.62;98249.81;5096403;28;20199;-81
2022/06/19 10:46:18;;;;;;;17.20;6.22;;;;;;;31.44;76.86;98243.03;5096290;28;20716;-81
2022/06/19 10:48:54;;;;;;;17.63;6.88;;;;;;;30.90;80.57;98251.06;5093008;28;20234;-81
2022/06/19 10:51:37;;;;;;;14.73;6.45;;;;;;;31.15;79.00;98236.88;5095009;28;20199;-81
2022/06/19 10:54:34;;;;;;;14.30;6.50;;;;;;;31.21;79.87;98262.47;5096035;28;20327;-81
2022/06/19 10:57:12;;;;;;;16.63;6.97;;;;;;;31.59;78.30;98256.09;5050360;28;20200;-81
2022/06/19 10:59:41;;;;;;;14.45;6.57;;;;;;;32.37;76.52;98257.47;5048657;28;20321;-82
2022/06/19 11:05:13;;;;;;;15.55;6.43;;;;;;;32.15;73.49;98254.78;5053636;28;20196;-81
2022/06/19 11:07:43;;;;;;;16.10;6.55;;;;;;;31.39;76.35;98259.41;5049395;28;20201;-81
2022/06/19 11:10:18;;;;;;;15.25;6.57;;;;;;;31.27;83.18;98266.94;5052957;28;20279;-81
2022/06/19 11:12:49;;;;;;;15.02;6.43;;;;;;;31.95;78.70;98272.97;5045985;28;20211;-81
2022/06/19 11:15:29;;;;;;;11.93;6.30;;;;;;;31.84;78.56;98267.34;5078100;28;20257;-81
2022/06/19 11:18:13;;;;;;;14.35;6.57;;;;;;;32.00;79.66;98262.84;5092114;28;20199;-81
2022/06/19 11:20:44;;;;;;;11.77;6.05;;;;;;;31.86;78.55;98275.31;5096398;28;20665;-82
2022/06/19 11:23:25;;;;;;;14.50;6.80;;;;;;;30.93;82.59;98274.34;5090565;28;20199;-81
2022/06/19 11:26:10;;;;;;;15.65;6.35;;;;;;;31.56;77.50;98276.59;5094340;28;20203;-81
2022/06/19 11:28:43;;;;;;;13.05;5.95;;;;;;;31.63;76.58;98268.16;5091196;28;20274;-82
2022/06/19 11:31:17;;;;;;;15.18;6.45;;;;;;;31.41;80.72;98256.41;5092530;28;20266;-82
2022/06/19 11:33:47;;;;;;;11.55;6.45;;;;;;;32.08;81.06;98247.88;5088869;28;20216;-81
2022/06/19 11:36:29;;;;;;;20.58;6.65;;;;;;;31.83;80.01;98248.44;5091554;28;20200;-82
2022/06/19 11:38:59;;;;;;;10.90;6.18;;;;;;;31.93;79.21;98247.69;5092822;28;20346;-81
2022/06/19 11:41:32;;;;;;;12.10;6.30;;;;;;;32.14;78.77;98246.84;5094345;28;20556;-81
2022/06/19 11:44:14;;;;;;;12.57;6.38;;;;;;;32.65;77.73;98244.53;5099767;27;20225;-81
2022/06/19 11:46:46;;;;;;;12.65;6.53;;;;;;;32.30;69.08;98245.91;5094020;28;20215;-81
2022/06/19 11:49:26;;;;;;;9.10;5.82;;;;;;;32.27;71.05;98232.69;5093433;28;20283;-82
2022/06/19 11:52:05;;;;;;;14.75;6.35;;;;;;;32.23;72.42;98227.97;5097465;27;20203;-82
2022/06/19 11:54:42;;;;;;;16.23;6.10;;;;;;;32.38;70.74;98219.91;5092345;28;20218;-82